Time;durP1;ratioP1;P1;durP2;ratioP2;P2;SDS_P1;SDS_P2;PMS_P1;PMS_P2;Temp;Humidity;BMP_temperature;BMP_pressure;BME280_temperature;BME280_humidity;BME280_pressure;Samples;Min_cycle;Max_cycle;Signal;HPM_P1;HPM_P2
2023/10/15 00:00:24;;;;;;;9.77;3.22;;;;;;;-148.15;100.00;61821.78;5050125;28;20033;-94
2023/10/15 00:02:51;;;;;;;11.02;3.53;;;;;;;-148.15;100.00;61821.78;5039504;28;20030;-94
2023/10/15 00:05:20;;;;;;;13.47;3.80;;;;;;;-148.15;100.00;61821.78;5054945;28;20017;-94
2023/10/15 00:07:48;;;;;;;11.10;3.28;;;;;;;-148.15;100.00;61821.78;5037633;28;20240;-94
2023/10/15 00:10:21;;;;;;;9.57;3.10;;;;;;;-148.15;100.00;61821.78;5054975;28;20025;-95
2023/10/15 00:12:48;;;;;;;12.93;3.78;;;;;;;-148.15;100.00;61821.78;5054461;28;20048;-95
2023/10/15 00:15:23;;;;;;;8.38;3.40;;;;;;;-148.15;100.00;61821.78;5054018;28;20072;-94
2023/10/15 00:17:51;;;;;;;12.90;3.50;;;;;;;-148.15;100.00;61821.78;5045171;28;20133;-93
2023/10/15 00:20:21;;;;;;;10.13;3.37;;;;;;;-148.15;100.00;61821.78;5033721;28;20029;-94
2023/10/15 00:22:49;;;;;;;9.60;3.50;;;;;;;-148.15;100.00;61821.78;5028615;28;20539;-94
2023/10/15 00:25:16;;;;;;;10.43;3.08;;;;;;;-148.15;100.00;61821.78;5042127;28;20025;-93
2023/10/15 00:27:54;;;;;;;9.63;3.13;;;;;;;-148.15;100.00;61821.78;5047104;28;20029;-94
2023/10/15 00:30:20;;;;;;;11.02;3.58;;;;;;;-148.15;100.00;61821.78;5047336;28;20578;-93
2023/10/15 00:32:47;;;;;;;7.70;3.25;;;;;;;-148.15;100.00;61821.78;5052173;28;20384;-93
2023/10/15 00:35:14;;;;;;;8.95;2.90;;;;;;;-148.15;100.00;61821.78;5047886;28;20017;-92
2023/10/15 00:37:51;;;;;;;10.82;3.08;;;;;;;-148.15;100.00;61821.78;5043941;28;20005;-94
2023/10/15 00:40:20;;;;;;;7.47;2.97;;;;;;;-148.15;100.00;61821.78;5037558;28;20021;-93
2023/10/15 00:42:45;;;;;;;7.68;2.90;;;;;;;-148.15;100.00;61821.78;5041295;28;20029;-94
2023/10/15 00:45:43;;;;;;;8.82;2.80;;;;;;;-148.15;100.00;61821.78;5043477;28;20022;-93
2023/10/15 00:48:11;;;;;;;9.52;2.72;;;;;;;-148.15;100.00;61821.78;5047877;28;20028;-91
2023/10/15 00:50:42;;;;;;;9.15;3.33;;;;;;;-148.15;100.00;61821.78;5055085;28;20017;-93
2023/10/15 00:53:21;;;;;;;8.70;2.50;;;;;;;-148.15;100.00;61821.78;5055361;28;20029;-92
2023/10/15 00:55:49;;;;;;;8.50;2.73;;;;;;;-148.15;100.00;61821.78;5052381;28;20030;-90
2023/10/15 00:58:21;;;;;;;9.50;2.83;;;;;;;-148.15;100.00;61821.78;5050373;28;20321;-91
2023/10/15 01:01:00;;;;;;;8.80;2.60;;;;;;;-148.15;100.00;61821.78;5050282;28;20026;-90
2023/10/15 01:03:30;;;;;;;12.38;3.08;;;;;;;-148.15;100.00;61821.78;5053932;28;20026;-91
2023/10/15 01:06:04;;;;;;;11.60;2.80;;;;;;;-148.15;100.00;61821.78;5053306;28;20025;-93
2023/10/15 01:08:35;;;;;;;7.18;2.38;;;;;;;-148.15;100.00;61821.78;5054958;28;20025;-91
2023/10/15 01:11:11;;;;;;;6.05;2.30;;;;;;;-148.15;100.00;61821.78;5056774;28;20025;-90
2023/10/15 01:13:39;;;;;;;5.13;2.33;;;;;;;-148.15;100.00;61821.78;5056141;28;20473;-90
2023/10/15 01:16:08;;;;;;;6.43;1.90;;;;;;;-148.15;100.00;61821.78;5051450;28;20033;-91
2023/10/15 01:18:36;;;;;;;4.30;1.57;;;;;;;-148.15;100.00;61821.78;5041013;28;20307;-92
2023/10/15 01:21:02;;;;;;;3.92;1.65;;;;;;;-148.15;100.00;61821.78;5041437;28;20022;-91
2023/10/15 01:26:23;;;;;;;6.32;1.75;;;;;;;-148.15;100.00;61821.78;5040047;28;20075;-92
2023/10/15 01:28:51;;;;;;;7.38;1.90;;;;;;;-148.15;100.00;61821.78;5036351;28;20022;-91
2023/10/15 01:31:16;;;;;;;7.15;2.20;;;;;;;-148.15;100.00;61821.78;5035770;28;20029;-92
2023/10/15 01:33:49;;;;;;;6.37;2.00;;;;;;;-148.15;100.00;61821.78;5018489;28;20028;-92
2023/10/15 01:36:22;;;;;;;7.25;1.83;;;;;;;-148.15;100.00;61821.78;5033961;28;20029;-93
2023/10/15 01:38:58;;;;;;;6.28;2.03;;;;;;;-148.15;100.00;61821.78;5033774;28;20036;-92
2023/10/15 01:41:27;;;;;;;5.07;2.20;;;;;;;-148.15;100.00;61821.78;5016450;28;20030;-92
2023/10/15 01:43:54;;;;;;;5.93;2.40;;;;;;;-148.15;100.00;61821.78;5034537;28;20085;-92
2023/10/15 01:49:17;;;;;;;6.82;3.00;;;;;;;-148.15;100.00;61821.78;5018513;28;20045;-92
2023/10/15 01:51:44;;;;;;;9.70;3.40;;;;;;;-148.15;100.00;61821.78;5035037;28;20488;-92
2023/10/15 01:54:10;;;;;;;12.02;3.22;;;;;;;-148.15;100.00;61821.78;5035688;28;20109;-92
2023/10/15 01:56:36;;;;;;;10.07;2.30;;;;;;;-148.15;100.00;61821.78;5035852;28;20096;-91
2023/10/15 01:59:07;;;;;;;7.35;2.83;;;;;;;-148.15;100.00;61821.78;5025320;28;20496;-90
2023/10/15 02:01:37;;;;;;;7.50;2.45;;;;;;;-148.15;100.00;61821.78;5026317;28;20444;-90
2023/10/15 02:04:03;;;;;;;6.97;2.85;;;;;;;-148.15;100.00;61821.78;5035005;28;20017;-91
2023/10/15 02:06:31;;;;;;;5.10;2.65;;;;;;;-148.15;100.00;61821.78;5035869;28;20029;-92
2023/10/15 02:08:56;;;;;;;12.13;2.83;;;;;;;-148.15;100.00;61821.78;5033141;28;20049;-91
2023/10/15 02:11:21;;;;;;;6.50;2.60;;;;;;;-148.15;100.00;61821.78;5055065;28;20036;-90
2023/10/15 02:13:51;;;;;;;6.47;2.73;;;;;;;-148.15;100.00;61821.78;5055544;28;20013;-92
2023/10/15 02:16:29;;;;;;;12.35;3.25;;;;;;;-148.15;100.00;61821.78;5054081;28;20016;-92
2023/10/15 02:18:58;;;;;;;5.18;2.58;;;;;;;-148.15;100.00;61821.78;5052529;28;20010;-91
2023/10/15 02:21:24;;;;;;;7.72;3.50;;;;;;;-148.15;100.00;61821.78;5054939;28;20053;-92
2023/10/15 02:23:52;;;;;;;8.20;2.80;;;;;;;-148.15;100.00;61821.78;5055227;28;20025;-91
2023/10/15 02:26:22;;;;;;;7.47;3.00;;;;;;;-148.15;100.00;61821.78;5038054;28;20021;-92
2023/10/15 02:28:53;;;;;;;11.38;3.30;;;;;;;-148.15;100.00;61821.78;5038106;28;20014;-91
2023/10/15 02:31:22;;;;;;;9.75;3.47;;;;;;;-148.15;100.00;61821.78;5033180;28;20029;-91
2023/10/15 02:33:47;;;;;;;8.82;3.10;;;;;;;-148.15;100.00;61821.78;5033341;28;20088;-91
2023/10/15 02:36:16;;;;;;;10.50;3.40;;;;;;;-148.15;100.00;61821.78;5033509;28;20037;-93
2023/10/15 02:38:56;;;;;;;7.80;3.00;;;;;;;-148.15;100.00;61821.78;5041264;28;20056;-91
2023/10/15 02:41:30;;;;;;;9.93;3.15;;;;;;;-148.15;100.00;61821.78;5043641;28;20025;-93
2023/10/15 02:43:56;;;;;;;8.50;3.43;;;;;;;-148.15;100.00;61821.78;5016664;28;20125;-93
2023/10/15 02:46:36;;;;;;;10.68;3.30;;;;;;;-148.15;100.00;61821.78;5044455;28;20021;-92
2023/10/15 02:49:06;;;;;;;7.43;3.33;;;;;;;-148.15;100.00;61821.78;5015224;28;20110;-92
2023/10/15 02:51:35;;;;;;;10.73;3.50;;;;;;;-148.15;100.00;61821.78;5006237;28;20340;-92
2023/10/15 02:54:18;;;;;;;8.63;3.30;;;;;;;-148.15;100.00;61821.78;5033884;28;20025;-91
2023/10/15 02:56:45;;;;;;;13.65;4.00;;;;;;;-148.15;100.00;61821.78;5032890;28;20108;-92
2023/10/15 02:59:10;;;;;;;7.60;3.50;;;;;;;-148.15;100.00;61821.78;5032408;28;20515;-92
2023/10/15 03:01:36;;;;;;;8.90;3.30;;;;;;;-148.15;100.00;61821.78;5031099;28;20077;-92
2023/10/15 03:04:09;;;;;;;11.95;4.60;;;;;;;-148.15;100.00;61821.78;5031695;28;20557;-92
2023/10/15 03:06:34;;;;;;;11.07;3.73;;;;;;;-148.15;100.00;61821.78;5030743;28;20100;-93
2023/10/15 03:09:00;;;;;;;8.32;2.67;;;;;;;-148.15;100.00;61821.78;5033139;28;20017;-93
2023/10/15 03:11:32;;;;;;;6.47;2.55;;;;;;;-148.15;100.00;61821.78;5019820;28;20069;-92
2023/10/15 03:14:00;;;;;;;6.73;2.50;;;;;;;-148.15;100.00;61821.78;5040355;28;20087;-92
2023/10/15 03:16:30;;;;;;;4.53;1.87;;;;;;;-148.15;100.00;61821.78;5011602;28;20299;-91
2023/10/15 03:18:56;;;;;;;5.90;2.30;;;;;;;-148.15;100.00;61821.78;5031573;28;20022;-92
2023/10/15 03:21:25;;;;;;;4.65;1.95;;;;;;;-148.15;100.00;61821.78;5029942;28;20060;-89
2023/10/15 03:23:57;;;;;;;2.42;1.65;;;;;;;-148.15;100.00;61821.78;5030354;28;20080;-89
2023/10/15 03:26:30;;;;;;;6.55;1.75;;;;;;;-148.15;100.00;61821.78;5029677;28;20031;-89
2023/10/15 03:28:59;;;;;;;3.85;1.63;;;;;;;-148.15;100.00;61821.78;5031840;28;20021;-89
2023/10/15 03:31:27;;;;;;;7.57;2.40;;;;;;;-148.15;100.00;61821.78;5030023;28;20438;-89
2023/10/15 03:36:43;;;;;;;3.70;1.88;;;;;;;-148.15;100.00;61821.78;5028537;28;20072;-89
2023/10/15 03:39:15;;;;;;;4.13;1.83;;;;;;;-148.15;100.00;61821.78;5029412;28;20061;-89
2023/10/15 03:41:41;;;;;;;4.55;1.60;;;;;;;-148.15;100.00;61821.78;5028764;28;20052;-90
2023/10/15 03:44:09;;;;;;;7.43;2.20;;;;;;;-148.15;100.00;61821.78;5030408;28;20384;-88
2023/10/15 03:46:36;;;;;;;4.97;2.10;;;;;;;-148.15;100.00;61821.78;5027733;28;20112;-89
2023/10/15 03:49:07;;;;;;;4.97;1.90;;;;;;;-148.15;100.00;61821.78;5030026;28;20075;-88
2023/10/15 03:51:33;;;;;;;6.47;2.30;;;;;;;-148.15;100.00;61821.78;5029613;28;20427;-88
2023/10/15 03:54:06;;;;;;;5.60;2.20;;;;;;;-148.15;100.00;61821.78;5030375;28;20029;-87
2023/10/15 03:56:34;;;;;;;6.37;2.30;;;;;;;-148.15;100.00;61821.78;5027924;28;20017;-88
2023/10/15 03:59:02;;;;;;;5.77;2.30;;;;;;;-148.15;100.00;61821.78;5019188;28;20328;-88
2023/10/15 04:01:30;;;;;;;4.15;1.70;;;;;;;-148.15;100.00;61821.78;5033641;28;20052;-90
2023/10/15 04:03:55;;;;;;;8.45;2.03;;;;;;;-148.15;100.00;61821.78;5013987;28;20033;-88
2023/10/15 04:06:21;;;;;;;3.55;2.25;;;;;;;-148.15;100.00;61821.78;5029623;28;20750;-87
2023/10/15 04:09:09;;;;;;;5.47;2.15;;;;;;;-148.15;100.00;61821.78;5031399;28;20135;-88
2023/10/15 04:11:44;;;;;;;3.80;1.90;;;;;;;-148.15;100.00;61821.78;5012964;28;20049;-88
2023/10/15 04:16:43;;;;;;;3.15;2.05;;;;;;;-148.15;100.00;61821.78;5030089;28;20457;-88
2023/10/15 04:19:09;;;;;;;4.72;1.70;;;;;;;-148.15;100.00;61821.78;5011289;28;20084;-88
2023/10/15 04:21:39;;;;;;;5.30;2.03;;;;;;;-148.15;100.00;61821.78;5029933;28;20104;-88
2023/10/15 04:24:07;;;;;;;5.32;1.42;;;;;;;-148.15;100.00;61821.78;5012086;28;20425;-88
2023/10/15 04:26:40;;;;;;;4.10;1.60;;;;;;;-148.15;100.00;61821.78;5027946;28;20496;-88
2023/10/15 04:29:16;;;;;;;8.53;2.30;;;;;;;-148.15;100.00;61821.78;5009775;28;20279;-88
2023/10/15 04:31:44;;;;;;;6.45;2.40;;;;;;;-148.15;100.00;61821.78;5033331;28;20394;-88
2023/10/15 04:34:16;;;;;;;4.20;2.35;;;;;;;-148.15;100.00;61821.78;5028848;28;20523;-88
2023/10/15 04:36:43;;;;;;;3.55;2.20;;;;;;;-148.15;100.00;61821.78;5027518;28;20493;-88
2023/10/15 04:39:12;;;;;;;2.05;1.40;;;;;;;-148.15;100.00;61821.78;5010525;28;20394;-88
2023/10/15 04:41:37;;;;;;;5.60;1.48;;;;;;;-148.15;100.00;61821.78;5028794;28;20033;-88
2023/10/15 04:44:03;;;;;;;1.87;1.27;;;;;;;-148.15;100.00;61821.78;5032008;28;20484;-92
2023/10/15 04:46:30;;;;;;;5.75;1.55;;;;;;;-148.15;100.00;61821.78;5032362;28;20421;-93
2023/10/15 04:48:58;;;;;;;3.13;1.20;;;;;;;-148.15;100.00;61821.78;5035291;28;20032;-93
2023/10/15 04:51:42;;;;;;;3.27;1.30;;;;;;;-148.15;100.00;61821.78;5034971;28;20032;-92
2023/10/15 04:54:07;;;;;;;3.85;1.20;;;;;;;-148.15;100.00;61821.78;5026390;28;20411;-94
2023/10/15 04:56:32;;;;;;;3.70;1.50;;;;;;;-148.15;100.00;61821.78;5035011;28;20220;-94
2023/10/15 04:58:58;;;;;;;5.23;2.13;;;;;;;-148.15;100.00;61821.78;5016971;28;20783;-93
2023/10/15 05:01:23;;;;;;;7.23;1.90;;;;;;;-148.15;100.00;61821.78;5034867;28;20025;-92
2023/10/15 05:03:49;;;;;;;8.47;2.40;;;;;;;-148.15;100.00;61821.78;5031358;28;20552;-91
2023/10/15 05:06:14;;;;;;;5.50;2.07;;;;;;;-148.15;100.00;61821.78;5034253;28;20022;-93
2023/10/15 05:08:47;;;;;;;4.40;2.40;;;;;;;-148.15;100.00;61821.78;5034455;28;20272;-92
2023/10/15 05:11:12;;;;;;;5.47;1.95;;;;;;;-148.15;100.00;61821.78;5032670;28;20232;-89
2023/10/15 05:13:37;;;;;;;3.93;2.10;;;;;;;-148.15;100.00;61821.78;5031842;28;20104;-90
2023/10/15 05:16:04;;;;;;;7.27;2.70;;;;;;;-148.15;100.00;61821.78;5032596;28;20029;-90
2023/10/15 05:18:29;;;;;;;7.15;2.67;;;;;;;-148.15;100.00;61821.78;5031368;28;20017;-90
2023/10/15 05:20:55;;;;;;;3.70;2.30;;;;;;;-148.15;100.00;61821.78;5032934;28;20033;-90
2023/10/15 05:23:22;;;;;;;3.80;1.75;;;;;;;-148.15;100.00;61821.78;5036730;28;20480;-90
2023/10/15 05:25:49;;;;;;;3.97;1.98;;;;;;;-148.15;100.00;61821.78;5040749;28;20026;-90
2023/10/15 05:28:15;;;;;;;6.85;1.67;;;;;;;-148.15;100.00;61821.78;5033006;28;20025;-90
2023/10/15 05:30:43;;;;;;;4.90;2.00;;;;;;;-148.15;100.00;61821.78;5043085;28;20033;-90
2023/10/15 05:33:09;;;;;;;6.13;1.73;;;;;;;-148.15;100.00;61821.78;5036466;28;20056;-89
2023/10/15 05:35:40;;;;;;;5.37;2.00;;;;;;;-148.15;100.00;61821.78;5031170;28;20045;-88
2023/10/15 05:38:09;;;;;;;7.50;2.13;;;;;;;-148.15;100.00;61821.78;5032701;28;20033;-88
2023/10/15 05:40:35;;;;;;;4.05;2.20;;;;;;;-148.15;100.00;61821.78;5032284;28;20041;-89
2023/10/15 05:43:00;;;;;;;7.22;2.00;;;;;;;-148.15;100.00;61821.78;5030231;28;20109;-88
2023/10/15 05:45:26;;;;;;;4.73;1.30;;;;;;;-148.15;100.00;61821.78;5031853;28;20451;-88
2023/10/15 05:47:52;;;;;;;4.72;1.30;;;;;;;-148.15;100.00;61821.78;5029710;28;20029;-87
2023/10/15 05:50:17;;;;;;;2.57;1.10;;;;;;;-148.15;100.00;61821.78;5031890;28;20017;-92
2023/10/15 05:52:43;;;;;;;7.43;1.47;;;;;;;-148.15;100.00;61821.78;5033005;28;20099;-91
2023/10/15 05:55:11;;;;;;;4.65;0.90;;;;;;;-148.15;100.00;61821.78;5038312;28;20099;-91
2023/10/15 05:57:37;;;;;;;3.17;0.70;;;;;;;-148.15;100.00;61821.78;5032836;28;20025;-90
2023/10/15 06:00:17;;;;;;;2.93;0.53;;;;;;;-148.15;100.00;61821.78;5035231;28;20029;-91
2023/10/15 06:02:53;;;;;;;3.40;1.08;;;;;;;-148.15;100.00;61821.78;5013959;28;20026;-91
2023/10/15 06:05:19;;;;;;;3.55;0.60;;;;;;;-148.15;100.00;61821.78;5014608;28;20116;-91
2023/10/15 06:07:45;;;;;;;7.55;1.17;;;;;;;-148.15;100.00;61821.78;5035247;28;20049;-91
2023/10/15 06:10:14;;;;;;;3.97;0.60;;;;;;;-148.15;100.00;61821.78;5033690;28;20532;-92
2023/10/15 06:12:39;;;;;;;2.35;0.70;;;;;;;-148.15;100.00;61821.78;5033742;28;20025;-92
2023/10/15 06:15:06;;;;;;;2.72;0.60;;;;;;;-148.15;100.00;61821.78;5034165;28;20048;-92
2023/10/15 06:17:32;;;;;;;4.37;0.60;;;;;;;-148.15;100.00;61821.78;5022373;28;20093;-91
2023/10/15 06:19:58;;;;;;;2.57;0.60;;;;;;;-148.15;100.00;61821.78;5037082;28;20308;-91
2023/10/15 06:22:25;;;;;;;4.20;0.68;;;;;;;-148.15;100.00;61821.78;5038372;28;20535;-92
2023/10/15 06:24:51;;;;;;;4.45;0.80;;;;;;;-148.15;100.00;61821.78;5023227;28;20021;-92
2023/10/15 06:27:18;;;;;;;2.88;0.65;;;;;;;-148.15;100.00;61821.78;5043188;28;20028;-90
2023/10/15 06:29:46;;;;;;;6.43;0.70;;;;;;;-148.15;100.00;61821.78;5038803;28;20106;-91
2023/10/15 06:32:11;;;;;;;2.83;0.70;;;;;;;-148.15;100.00;61821.78;5040162;28;20407;-91
2023/10/15 06:34:39;;;;;;;2.28;0.70;;;;;;;-148.15;100.00;61821.78;5038275;28;20079;-91
2023/10/15 06:37:08;;;;;;;7.93;0.80;;;;;;;-148.15;100.00;61821.78;5038441;28;20151;-91
2023/10/15 06:39:33;;;;;;;2.60;0.75;;;;;;;-148.15;100.00;61821.78;5036456;28;20638;-91
2023/10/15 06:42:00;;;;;;;4.55;1.08;;;;;;;-148.15;100.00;61821.78;5036736;28;20064;-92
2023/10/15 06:44:25;;;;;;;1.83;1.00;;;;;;;-148.15;100.00;61821.78;5037210;28;20030;-92
2023/10/15 06:46:50;;;;;;;2.17;0.80;;;;;;;-148.15;100.00;61821.78;5041813;28;20085;-91
2023/10/15 06:49:18;;;;;;;5.27;0.77;;;;;;;-148.15;100.00;61821.78;5046017;28;20026;-92
2023/10/15 06:51:43;;;;;;;4.55;0.90;;;;;;;-148.15;100.00;61821.78;5016771;28;20068;-92
2023/10/15 06:54:11;;;;;;;6.53;0.77;;;;;;;-148.15;100.00;61821.78;5046427;28;20013;-92
2023/10/15 06:56:37;;;;;;;2.78;0.75;;;;;;;-148.15;100.00;61821.78;5041495;28;20346;-93
2023/10/15 06:59:02;;;;;;;3.17;0.65;;;;;;;-148.15;100.00;61821.78;5033919;28;20048;-92
2023/10/15 07:01:30;;;;;;;2.67;0.80;;;;;;;-148.15;100.00;61821.78;5034083;28;20025;-94
2023/10/15 07:03:56;;;;;;;3.85;0.80;;;;;;;-148.15;100.00;61821.78;5047371;28;20029;-93
2023/10/15 07:06:22;;;;;;;2.65;0.95;;;;;;;-148.15;100.00;61821.78;5034431;28;20040;-92
2023/10/15 07:08:47;;;;;;;4.13;1.00;;;;;;;-148.15;100.00;61821.78;5030958;28;20026;-90
2023/10/15 07:11:14;;;;;;;1.23;0.90;;;;;;;-148.15;100.00;61821.78;5030454;28;20025;-90
2023/10/15 07:13:40;;;;;;;2.20;1.05;;;;;;;-148.15;100.00;61821.78;5032413;28;20346;-92
2023/10/15 07:16:06;;;;;;;3.95;1.00;;;;;;;-148.15;100.00;61821.78;5031584;28;20037;-89
2023/10/15 07:18:33;;;;;;;4.17;0.87;;;;;;;-148.15;100.00;61821.78;5029573;28;20093;-90
2023/10/15 07:20:58;;;;;;;3.42;1.10;;;;;;;-148.15;100.00;61821.78;5030357;28;20090;-89
2023/10/15 07:23:24;;;;;;;5.10;1.20;;;;;;;-148.15;100.00;61821.78;5031252;28;20037;-90
2023/10/15 07:25:50;;;;;;;2.63;1.15;;;;;;;-148.15;100.00;61821.78;5030674;28;20037;-89
2023/10/15 07:28:15;;;;;;;4.00;1.50;;;;;;;-148.15;100.00;61821.78;5030786;28;20021;-91
2023/10/15 07:30:41;;;;;;;4.70;1.63;;;;;;;-148.15;100.00;61821.78;5030754;28;20044;-91
2023/10/15 07:33:06;;;;;;;5.13;1.58;;;;;;;-148.15;100.00;61821.78;5014279;28;20037;-89
2023/10/15 07:35:31;;;;;;;2.83;1.57;;;;;;;-148.15;100.00;61821.78;5031807;28;20037;-91
2023/10/15 07:37:57;;;;;;;3.77;1.53;;;;;;;-148.15;100.00;61821.78;5014828;28;20053;-89
2023/10/15 07:40:26;;;;;;;8.65;1.70;;;;;;;-148.15;100.00;61821.78;5030431;28;20104;-91
2023/10/15 07:42:58;;;;;;;4.30;1.50;;;;;;;-148.15;100.00;61821.78;5030732;28;20065;-90
2023/10/15 07:45:28;;;;;;;6.67;1.40;;;;;;;-148.15;100.00;61821.78;5033267;28;20311;-89
2023/10/15 07:47:55;;;;;;;5.53;1.30;;;;;;;-148.15;100.00;61821.78;5038339;28;20041;-90
2023/10/15 07:50:23;;;;;;;5.28;1.30;;;;;;;-148.15;100.00;61821.78;5036516;28;20041;-90
2023/10/15 07:52:49;;;;;;;3.05;1.10;;;;;;;-148.15;100.00;61821.78;5035113;28;20064;-92
2023/10/15 07:55:16;;;;;;;4.53;1.20;;;;;;;-148.15;100.00;61821.78;5038811;28;20025;-92
2023/10/15 07:57:41;;;;;;;2.88;1.33;;;;;;;-148.15;100.00;61821.78;5026306;28;20021;-92
2023/10/15 08:00:09;;;;;;;5.80;1.60;;;;;;;-148.15;100.00;61821.78;5037619;28;20032;-92
2023/10/15 08:02:37;;;;;;;6.43;1.42;;;;;;;-148.15;100.00;61821.78;5041318;28;20029;-92
2023/10/15 08:05:03;;;;;;;4.35;1.10;;;;;;;-148.15;100.00;61821.78;5041658;28;20357;-92
2023/10/15 08:07:28;;;;;;;3.73;1.10;;;;;;;-148.15;100.00;61821.78;5045829;28;20022;-93
2023/10/15 08:09:54;;;;;;;4.67;1.30;;;;;;;-148.15;100.00;61821.78;5055059;28;20093;-93
2023/10/15 08:12:20;;;;;;;12.68;1.65;;;;;;;-148.15;100.00;61821.78;5054707;28;20022;-92
2023/10/15 08:14:47;;;;;;;3.07;1.00;;;;;;;-148.15;100.00;61821.78;5036142;28;20022;-90
2023/10/15 08:17:15;;;;;;;7.63;1.13;;;;;;;-148.15;100.00;61821.78;5051715;28;20290;-94
2023/10/15 08:19:40;;;;;;;5.25;1.38;;;;;;;-148.15;100.00;61821.78;5053394;28;20033;-88
2023/10/15 08:22:06;;;;;;;8.73;1.47;;;;;;;-148.15;100.00;61821.78;5050813;28;20024;-92
2023/10/15 08:24:32;;;;;;;7.30;1.20;;;;;;;-148.15;100.00;61821.78;5021939;28;20033;-90
2023/10/15 08:26:57;;;;;;;2.45;1.10;;;;;;;-148.15;100.00;61821.78;5036124;28;20032;-91
2023/10/15 08:29:22;;;;;;;3.50;1.07;;;;;;;-148.15;100.00;61821.78;5036845;28;20034;-91
2023/10/15 08:31:48;;;;;;;5.17;1.07;;;;;;;-148.15;100.00;61821.78;5034117;28;20026;-91
2023/10/15 08:34:13;;;;;;;6.93;1.50;;;;;;;-148.15;100.00;61821.78;5035157;28;20029;-91
2023/10/15 08:36:48;;;;;;;7.87;1.40;;;;;;;-148.15;100.00;61821.78;5034546;28;20102;-91
2023/10/15 08:39:13;;;;;;;7.13;1.40;;;;;;;-148.15;100.00;61821.78;5042482;28;20025;-90
2023/10/15 08:41:43;;;;;;;5.70;0.90;;;;;;;-148.15;100.00;61821.78;5047278;28;20038;-87
2023/10/15 08:44:09;;;;;;;5.10;0.88;;;;;;;-148.15;100.00;61821.78;5043323;28;20036;-88
2023/10/15 08:46:38;;;;;;;3.33;0.70;;;;;;;-148.15;100.00;61821.78;5021364;28;20017;-88
2023/10/15 08:49:11;;;;;;;7.15;1.10;;;;;;;-148.15;100.00;61821.78;5037773;28;20033;-88
2023/10/15 08:51:37;;;;;;;1.90;0.75;;;;;;;-148.15;100.00;61821.78;5040074;28;20033;-88
2023/10/15 08:54:03;;;;;;;4.15;0.73;;;;;;;-148.15;100.00;61821.78;5040334;28;20463;-88
2023/10/15 08:56:33;;;;;;;5.10;0.98;;;;;;;-148.15;100.00;61821.78;5031999;28;20131;-87
2023/10/15 08:59:09;;;;;;;5.38;0.80;;;;;;;-148.15;100.00;61821.78;5033931;28;20117;-87
2023/10/15 09:01:36;;;;;;;3.67;0.70;;;;;;;-148.15;100.00;61821.78;5033101;28;20753;-85
2023/10/15 09:04:04;;;;;;;3.60;0.90;;;;;;;-148.15;100.00;61821.78;5020404;28;20318;-87
2023/10/15 09:06:30;;;;;;;4.05;0.82;;;;;;;-148.15;100.00;61821.78;5044928;28;20033;-87
2023/10/15 09:08:55;;;;;;;7.38;0.68;;;;;;;-148.15;100.00;61821.78;5032452;28;20428;-86
2023/10/15 09:11:21;;;;;;;4.20;0.77;;;;;;;-148.15;100.00;61821.78;5015563;28;20080;-88
2023/10/15 09:13:50;;;;;;;7.03;0.80;;;;;;;-148.15;100.00;61821.78;5032707;28;20022;-89
2023/10/15 09:16:16;;;;;;;3.40;0.60;;;;;;;-148.15;100.00;61821.78;5033249;28;20379;-89
2023/10/15 09:18:43;;;;;;;2.87;0.77;;;;;;;-148.15;100.00;61821.78;5030129;28;20374;-88
2023/10/15 09:21:09;;;;;;;6.30;0.77;;;;;;;-148.15;100.00;61821.78;5030435;28;20033;-89
2023/10/15 09:23:37;;;;;;;4.90;0.73;;;;;;;-148.15;100.00;61821.78;5031328;28;20475;-89
2023/10/15 09:26:07;;;;;;;4.40;1.20;;;;;;;-148.15;100.00;61821.78;5032333;28;20029;-89
2023/10/15 09:28:33;;;;;;;3.40;1.20;;;;;;;-148.15;100.00;61821.78;5032585;28;20025;-89
2023/10/15 09:31:06;;;;;;;5.33;1.57;;;;;;;-148.15;100.00;61821.78;5031381;28;20036;-88
2023/10/15 09:36:35;;;;;;;7.13;0.90;;;;;;;-148.15;100.00;61821.78;5066983;22;20103;-88
2023/10/15 09:39:12;;;;;;;4.45;0.70;;;;;;;-148.15;100.00;61821.78;5050700;28;20057;-87
2023/10/15 09:41:45;;;;;;;4.40;0.90;;;;;;;-148.15;100.00;61821.78;5051899;28;20052;-87
2023/10/15 09:44:14;;;;;;;2.08;0.95;;;;;;;-148.15;100.00;61821.78;5041689;28;20034;-88
2023/10/15 09:46:43;;;;;;;3.30;1.00;;;;;;;-148.15;100.00;61821.78;5026491;28;20028;-87
2023/10/15 09:49:10;;;;;;;3.75;1.00;;;;;;;-148.15;100.00;61821.78;5052384;28;20048;-88
2023/10/15 09:51:36;;;;;;;7.00;1.10;;;;;;;-148.15;100.00;61821.78;5043148;28;20033;-88
2023/10/15 09:54:03;;;;;;;6.70;1.27;;;;;;;-148.15;100.00;61821.78;5037271;28;20079;-88
2023/10/15 09:56:30;;;;;;;3.73;0.90;;;;;;;-148.15;100.00;61821.78;5049377;28;20299;-88
2023/10/15 09:58:56;;;;;;;3.97;1.27;;;;;;;-148.15;100.00;61821.78;5044334;28;20097;-89
2023/10/15 10:08:09;;;;;;;;;;;;;;;;;;;;;
2023/10/15 10:11:25;;;;;;;3.45;0.70;;;;;;;-148.15;100.00;61821.78;4981000;28;20045;-87
2023/10/15 10:14:02;;;;;;;1.42;0.60;;;;;;;-148.15;100.00;61821.78;4937184;28;20099;-88
2023/10/15 10:16:30;;;;;;;2.90;0.60;;;;;;;-148.15;100.00;61821.78;5022820;28;20542;-88
2023/10/15 10:18:56;;;;;;;1.03;0.40;;;;;;;-148.15;100.00;61821.78;5032206;28;20404;-89
2023/10/15 10:21:22;;;;;;;3.27;0.70;;;;;;;-148.15;100.00;61821.78;5026964;28;20398;-88
2023/10/15 10:23:53;;;;;;;1.50;0.60;;;;;;;-148.15;100.00;61821.78;5021354;28;20446;-89
2023/10/15 10:26:19;;;;;;;2.58;0.80;;;;;;;-148.15;100.00;61821.78;4997659;28;20041;-88
2023/10/15 10:31:21;;;;;;;4.35;0.70;;;;;;;-148.15;100.00;61821.78;5146601;22;20099;-87
2023/10/15 10:34:06;;;;;;;3.60;0.70;;;;;;;-148.15;100.00;61821.78;5071023;28;20102;-87
2023/10/15 10:36:37;;;;;;;5.80;0.65;;;;;;;-148.15;100.00;61821.78;5046109;28;20028;-87
2023/10/15 10:39:13;;;;;;;2.88;0.70;;;;;;;-148.15;100.00;61821.78;5071803;28;20028;-88
2023/10/15 10:41:40;;;;;;;4.43;0.82;;;;;;;-148.15;100.00;61821.78;5069983;28;20050;-87
2023/10/15 10:44:08;;;;;;;3.17;0.80;;;;;;;-148.15;100.00;61821.78;5034221;28;20036;-88
2023/10/15 10:46:42;;;;;;;6.05;0.60;;;;;;;-148.15;100.00;61821.78;5053173;28;20114;-87
2023/10/15 10:49:17;;;;;;;2.90;0.75;;;;;;;-148.15;100.00;61821.78;5061809;28;20039;-88
2023/10/15 10:52:17;;;;;;;4.03;0.90;;;;;;;-148.15;100.00;61821.78;5069783;28;20055;-88
2023/10/15 10:54:46;;;;;;;7.37;0.80;;;;;;;-148.15;100.00;61821.78;5058358;28;20318;-88
2023/10/15 10:57:11;;;;;;;2.55;0.80;;;;;;;-148.15;100.00;61821.78;5073254;28;20029;-88
2023/10/15 10:59:42;;;;;;;4.55;0.75;;;;;;;-148.15;100.00;61821.78;5061191;28;20043;-88
2023/10/15 11:02:13;;;;;;;2.50;0.60;;;;;;;-148.15;100.00;61821.78;5067748;28;20433;-85
2023/10/15 11:04:40;;;;;;;4.27;0.60;;;;;;;-148.15;100.00;61821.78;5066864;28;20371;-86
2023/10/15 11:07:05;;;;;;;4.07;0.82;;;;;;;-148.15;100.00;61821.78;5051972;28;20025;-87
2023/10/15 11:09:30;;;;;;;4.45;0.80;;;;;;;-148.15;100.00;61821.78;5065282;28;20031;-87
2023/10/15 11:11:57;;;;;;;3.27;0.77;;;;;;;-148.15;100.00;61821.78;5070818;28;20020;-87
2023/10/15 11:14:25;;;;;;;2.45;0.90;;;;;;;-148.15;100.00;61821.78;5069799;28;20025;-87
2023/10/15 11:16:52;;;;;;;5.72;0.73;;;;;;;-148.15;100.00;61821.78;5063255;28;20114;-86
2023/10/15 11:19:19;;;;;;;6.07;0.70;;;;;;;-148.15;100.00;61821.78;5050148;28;20033;-86
2023/10/15 11:21:45;;;;;;;0.80;0.50;;;;;;;-148.15;100.00;61821.78;5062804;28;20416;-86
2023/10/15 11:24:12;;;;;;;5.35;0.60;;;;;;;-148.15;100.00;61821.78;5070495;28;20024;-87
2023/10/15 11:26:44;;;;;;;5.22;0.75;;;;;;;-148.15;100.00;61821.78;5069356;28;20021;-86
2023/10/15 11:29:14;;;;;;;2.50;0.70;;;;;;;-148.15;100.00;61821.78;5061249;28;20032;-87
2023/10/15 11:31:46;;;;;;;5.10;0.80;;;;;;;-148.15;100.00;61821.78;5060631;28;20031;-87
2023/10/15 11:34:12;;;;;;;5.53;0.80;;;;;;;-148.15;100.00;61821.78;5058356;28;20025;-87
2023/10/15 11:36:39;;;;;;;4.33;1.10;;;;;;;-148.15;100.00;61821.78;5066453;28;20028;-87
2023/10/15 11:39:08;;;;;;;6.17;1.00;;;;;;;-148.15;100.00;61821.78;5050399;28;20436;-88